TimeCST,TemperatureF,Dew PointF,Humidity,Sea Level PressureIn,VisibilityMPH,Wind Direction,Wind SpeedMPH,Gust SpeedMPH,PrecipitationIn,Events,Conditions,WindDirDegrees,DateUTC
12:15 AM,41.0,19.4,42,30.33,10.0,SSW,5.8,-,N/A,,Clear,200,2012-12-05 06:15:00
12:35 AM,39.2,19.4,45,30.32,10.0,SSW,5.8,-,N/A,,Clear,200,2012-12-05 06:35:00
12:55 AM,39.2,19.4,45,30.32,10.0,SSW,6.9,-,N/A,,Clear,200,2012-12-05 06:55:00
1:15 AM,41.0,19.4,42,30.32,10.0,SSW,6.9,-,N/A,,Clear,200,2012-12-05 07:15:00
1:35 AM,39.2,19.4,45,30.32,10.0,South,8.1,-,N/A,,Clear,190,2012-12-05 07:35:00
1:55 AM,39.2,19.4,45,30.32,10.0,South,5.8,-,N/A,,Clear,180,2012-12-05 07:55:00
2:15 AM,35.6,19.4,52,30.32,10.0,SSE,5.8,-,N/A,,Clear,160,2012-12-05 08:15:00
2:35 AM,35.6,19.4,52,30.32,10.0,South,4.6,-,N/A,,Clear,180,2012-12-05 08:35:00
2:55 AM,37.4,19.4,48,30.32,10.0,South,4.6,-,N/A,,Clear,180,2012-12-05 08:55:00
3:15 AM,35.6,19.4,52,30.32,10.0,SSE,5.8,-,N/A,,Clear,160,2012-12-05 09:15:00
3:35 AM,37.4,21.2,52,30.32,10.0,South,6.9,-,N/A,,Clear,170,2012-12-05 09:35:00
3:55 AM,39.2,19.4,45,30.31,10.0,South,4.6,-,N/A,,Clear,180,2012-12-05 09:55:00
4:15 AM,41.0,19.4,42,30.31,10.0,South,5.8,-,N/A,,Clear,190,2012-12-05 10:15:00
4:35 AM,39.2,19.4,45,30.31,10.0,South,8.1,-,N/A,,Clear,180,2012-12-05 10:35:00
4:55 AM,37.4,19.4,48,30.30,10.0,South,6.9,-,N/A,,Clear,170,2012-12-05 10:55:00
5:15 AM,37.4,19.4,48,30.30,10.0,South,8.1,-,N/A,,Clear,170,2012-12-05 11:15:00
5:35 AM,37.4,21.2,52,30.30,10.0,South,6.9,-,N/A,,Clear,170,2012-12-05 11:35:00
5:55 AM,35.6,19.4,52,30.30,10.0,South,6.9,-,N/A,,Clear,170,2012-12-05 11:55:00
6:15 AM,35.6,21.2,56,30.30,10.0,SSE,5.8,-,N/A,,Clear,160,2012-12-05 12:15:00
6:35 AM,35.6,21.2,56,30.30,10.0,South,6.9,-,N/A,,Clear,170,2012-12-05 12:35:00
6:55 AM,35.6,21.2,56,30.30,10.0,South,8.1,-,N/A,,Clear,180,2012-12-05 12:55:00
8:35 AM,39.2,24.8,56,30.28,10.0,South,10.4,-,N/A,,Clear,180,2012-12-05 14:35:00
8:55 AM,42.8,26.6,53,30.27,10.0,South,12.7,-,N/A,,Clear,180,2012-12-05 14:55:00
9:15 AM,44.6,28.4,53,30.28,10.0,South,11.5,-,N/A,,Clear,190,2012-12-05 15:15:00
9:35 AM,46.4,28.4,50,30.28,10.0,SSW,15.0,-,N/A,,Clear,200,2012-12-05 15:35:00
9:55 AM,48.2,28.4,46,30.29,10.0,South,11.5,-,N/A,,Clear,190,2012-12-05 15:55:00
10:15 AM,51.8,28.4,41,30.28,10.0,South,15.0,-,N/A,,Clear,190,2012-12-05 16:15:00
10:35 AM,51.8,28.4,41,30.27,10.0,South,17.3,-,N/A,,Clear,190,2012-12-05 16:35:00
10:55 AM,53.6,28.4,38,30.26,10.0,SSW,17.3,-,N/A,,Clear,200,2012-12-05 16:55:00
11:15 AM,53.6,28.4,38,30.25,10.0,South,19.6,25.3,N/A,,Clear,180,2012-12-05 17:15:00
11:35 AM,55.4,26.6,33,30.24,10.0,South,19.6,-,N/A,,Clear,190,2012-12-05 17:35:00
11:55 AM,55.4,26.6,33,30.24,10.0,South,17.3,23.0,N/A,,Clear,190,2012-12-05 17:55:00
12:15 PM,53.6,24.8,33,30.22,10.0,South,16.1,-,N/A,,Clear,190,2012-12-05 18:15:00
12:35 PM,55.4,26.6,33,30.21,10.0,South,17.3,-,N/A,,Clear,190,2012-12-05 18:35:00
12:55 PM,57.2,26.6,31,30.19,10.0,South,18.4,-,N/A,,Clear,180,2012-12-05 18:55:00
1:15 PM,57.2,24.8,29,30.17,10.0,South,19.6,25.3,N/A,,Clear,180,2012-12-05 19:15:00
1:35 PM,57.2,24.8,29,30.16,10.0,South,18.4,-,N/A,,Clear,190,2012-12-05 19:35:00
1:55 PM,59.0,24.8,27,30.14,10.0,South,20.7,25.3,N/A,,Clear,170,2012-12-05 19:55:00
2:15 PM,59.0,23.0,25,30.12,10.0,South,19.6,25.3,N/A,,Clear,170,2012-12-05 20:15:00
2:35 PM,59.0,23.0,25,30.11,10.0,SSE,18.4,24.2,N/A,,Clear,160,2012-12-05 20:35:00
2:55 PM,57.2,21.2,25,30.10,10.0,South,17.3,-,N/A,,Clear,170,2012-12-05 20:55:00
3:15 PM,57.2,21.2,25,30.10,10.0,South,18.4,23.0,N/A,,Clear,180,2012-12-05 21:15:00
3:35 PM,57.2,21.2,25,30.09,10.0,South,20.7,-,N/A,,Clear,180,2012-12-05 21:35:00
3:55 PM,57.2,19.4,23,30.09,10.0,South,16.1,23.0,N/A,,Clear,170,2012-12-05 21:55:00
4:15 PM,57.2,19.4,23,30.09,10.0,South,13.8,-,N/A,,Clear,170,2012-12-05 22:15:00
4:35 PM,55.4,19.4,25,30.09,10.0,South,12.7,-,N/A,,Clear,170,2012-12-05 22:35:00
4:55 PM,53.6,17.6,24,30.08,10.0,South,11.5,-,N/A,,Clear,180,2012-12-05 22:55:00
5:15 PM,51.8,17.6,26,30.07,10.0,South,11.5,-,N/A,,Clear,170,2012-12-05 23:15:00
5:35 PM,51.8,17.6,26,30.06,10.0,SSE,11.5,-,N/A,,Clear,160,2012-12-05 23:35:00
5:55 PM,50.0,17.6,28,30.05,10.0,SSE,11.5,-,N/A,,Clear,160,2012-12-05 23:55:00
6:15 PM,48.2,19.4,32,30.04,10.0,SSE,11.5,-,N/A,,Clear,150,2012-12-06 00:15:00
6:35 PM,48.2,17.6,30,30.03,10.0,SSE,10.4,-,N/A,,Clear,160,2012-12-06 00:35:00
6:55 PM,46.4,17.6,32,30.03,10.0,SSE,12.7,-,N/A,,Clear,150,2012-12-06 00:55:00
7:15 PM,46.4,19.4,34,30.02,10.0,SSE,12.7,-,N/A,,Clear,160,2012-12-06 01:15:00
7:35 PM,46.4,19.4,34,30.02,10.0,SSE,12.7,-,N/A,,Clear,160,2012-12-06 01:35:00
7:55 PM,46.4,19.4,34,30.02,10.0,SSE,15.0,18.4,N/A,,Clear,160,2012-12-06 01:55:00
8:15 PM,46.4,21.2,37,30.02,10.0,SSE,12.7,-,N/A,,Clear,160,2012-12-06 02:15:00
8:35 PM,44.6,21.2,39,30.01,10.0,SSE,12.7,-,N/A,,Clear,160,2012-12-06 02:35:00
8:55 PM,44.6,21.2,39,30.01,10.0,SSE,11.5,-,N/A,,Clear,150,2012-12-06 02:55:00
9:15 PM,44.6,21.2,39,30.00,10.0,SSE,13.8,-,N/A,,Clear,160,2012-12-06 03:15:00
9:35 PM,44.6,21.2,39,30.00,10.0,South,15.0,-,N/A,,Clear,170,2012-12-06 03:35:00
9:55 PM,44.6,21.2,39,30.00,10.0,SSE,13.8,-,N/A,,Clear,160,2012-12-06 03:55:00
10:15 PM,42.8,23.0,46,30.00,10.0,South,12.7,-,N/A,,Clear,170,2012-12-06 04:15:00
10:35 PM,42.8,23.0,46,30.00,10.0,South,11.5,-,N/A,,Clear,170,2012-12-06 04:35:00
10:55 PM,42.8,23.0,46,29.99,10.0,South,12.7,-,N/A,,Clear,170,2012-12-06 04:55:00
11:15 PM,42.8,24.8,49,29.98,10.0,South,12.7,-,N/A,,Clear,170,2012-12-06 05:15:00
11:35 PM,44.6,24.8,46,29.97,10.0,SSE,12.7,-,N/A,,Clear,160,2012-12-06 05:35:00
11:55 PM,42.8,24.8,49,29.97,10.0,SSE,11.5,-,N/A,,Clear,160,2012-12-06 05:55:00